CES6564 ZUGY-ZSHC
Flight info
| Callsign | CES6564 |
|---|---|
| Flight time | 1h 59m |
| Altitude | 37100 |
| Route | AVBOB W586 TRN W183 HUY A581 WHA R343 UPLEL W95 SAPIN A470 IGRAT |
| Aircraft | A320/M-SDE3FGHIRWY/LB1 |
Departure
| Time | 2026-04-25 01:11 |
|---|---|
| Airport | Guiyang Longdongbao International Airport (ZUGY) |
Arrival
| Time | 2026-04-25 03:11 |
|---|---|
| Airport | Hangzhou Xiaoshan International Airport (ZSHC) |
| Time | Latitude | Longitude | Altitude | Speed | Heading |
|---|---|---|---|---|---|
| 2026-04-25 00:57 | 26.54869 | 106.79889 | 3740 ft | 0 kts | 12° |
| 2026-04-25 01:02 | 26.54860 | 106.79886 | 3740 ft | 4 kts | 14° |
| 2026-04-25 01:02 | 26.54834 | 106.79877 | 3740 ft | 4 kts | 31° |
| 2026-04-25 01:02 | 26.54817 | 106.79858 | 3740 ft | 4 kts | 83° |
| 2026-04-25 01:03 | 26.54816 | 106.79849 | 3740 ft | 0 kts | 100° |
| 2026-04-25 01:04 | 26.54816 | 106.79851 | 3740 ft | 2 kts | 100° |
| 2026-04-25 01:04 | 26.54810 | 106.79884 | 3740 ft | 8 kts | 101° |
| 2026-04-25 01:05 | 26.54796 | 106.79969 | 3740 ft | 14 kts | 99° |
| 2026-04-25 01:05 | 26.54775 | 106.80086 | 3741 ft | 15 kts | 117° |
| 2026-04-25 01:05 | 26.54712 | 106.80101 | 3741 ft | 15 kts | 190° |
| 2026-04-25 01:05 | 26.54563 | 106.80073 | 3741 ft | 17 kts | 189° |
| 2026-04-25 01:06 | 26.54482 | 106.80057 | 3741 ft | 18 kts | 188° |
| 2026-04-25 01:06 | 26.54355 | 106.80033 | 3742 ft | 19 kts | 189° |
| 2026-04-25 01:06 | 26.54225 | 106.80009 | 3742 ft | 20 kts | 191° |
| 2026-04-25 01:06 | 26.54119 | 106.79986 | 3742 ft | 20 kts | 191° |
| 2026-04-25 01:07 | 26.54051 | 106.79972 | 3742 ft | 21 kts | 190° |
| 2026-04-25 01:07 | 26.53909 | 106.79945 | 3742 ft | 21 kts | 190° |
| 2026-04-25 01:07 | 26.53763 | 106.79917 | 3742 ft | 22 kts | 190° |
| 2026-04-25 01:07 | 26.53625 | 106.79889 | 3743 ft | 22 kts | 189° |
| 2026-04-25 01:08 | 26.53476 | 106.79862 | 3743 ft | 23 kts | 190° |
| 2026-04-25 01:08 | 26.53274 | 106.79822 | 3744 ft | 23 kts | 190° |
| 2026-04-25 01:08 | 26.53168 | 106.79802 | 3744 ft | 23 kts | 190° |
| 2026-04-25 01:08 | 26.53011 | 106.79773 | 3744 ft | 24 kts | 189° |
| 2026-04-25 01:09 | 26.52848 | 106.79747 | 3745 ft | 24 kts | 187° |
| 2026-04-25 01:09 | 26.52684 | 106.79722 | 3745 ft | 20 kts | 193° |
| 2026-04-25 01:09 | 26.52543 | 106.79685 | 3745 ft | 21 kts | 193° |
| 2026-04-25 01:09 | 26.52436 | 106.79695 | 3746 ft | 14 kts | 127° |
| 2026-04-25 01:10 | 26.52416 | 106.79803 | 3746 ft | 15 kts | 93° |
| 2026-04-25 01:10 | 26.52487 | 106.79858 | 3745 ft | 7 kts | 9° |
| 2026-04-25 01:10 | 26.52561 | 106.79871 | 3745 ft | 27 kts | 10° |
| 2026-04-25 01:10 | 26.52999 | 106.79956 | 3747 ft | 97 kts | 10° |
| 2026-04-25 01:11 | 26.53858 | 106.80123 | 3741 ft | 151 kts | 9° |
| 2026-04-25 01:11 | 26.55021 | 106.80359 | 3937 ft | 179 kts | 11° |
| 2026-04-25 01:11 | 26.56261 | 106.80602 | 4587 ft | 183 kts | 10° |
| 2026-04-25 01:11 | 26.57511 | 106.80832 | 5339 ft | 182 kts | 9° |
| 2026-04-25 01:12 | 26.58788 | 106.81065 | 5790 ft | 194 kts | 8° |
| 2026-04-25 01:12 | 26.60195 | 106.81322 | 6066 ft | 214 kts | 8° |
| 2026-04-25 01:12 | 26.61705 | 106.81598 | 6377 ft | 230 kts | 9° |
| 2026-04-25 01:12 | 26.63376 | 106.81905 | 6834 ft | 251 kts | 8° |
| 2026-04-25 01:13 | 26.65122 | 106.82227 | 7613 ft | 256 kts | 9° |
| 2026-04-25 01:13 | 26.66805 | 106.82892 | 8393 ft | 262 kts | 37° |
| 2026-04-25 01:13 | 26.67891 | 106.84477 | 9144 ft | 267 kts | 71° |
| 2026-04-25 01:13 | 26.68021 | 106.86566 | 9921 ft | 271 kts | 98° |
| 2026-04-25 01:14 | 26.67550 | 106.88621 | 10680 ft | 275 kts | 107° |
| 2026-04-25 01:14 | 26.66951 | 106.90666 | 11356 ft | 279 kts | 107° |
| 2026-04-25 01:14 | 26.66341 | 106.92742 | 12008 ft | 283 kts | 107° |
| 2026-04-25 01:14 | 26.65731 | 106.94849 | 12722 ft | 287 kts | 104° |
| 2026-04-25 01:15 | 26.65294 | 106.97044 | 13410 ft | 291 kts | 99° |
| 2026-04-25 01:15 | 26.65005 | 106.99267 | 14053 ft | 295 kts | 96° |
| 2026-04-25 01:15 | 26.64763 | 107.01590 | 14643 ft | 299 kts | 95° |
| 2026-04-25 01:15 | 26.64529 | 107.03919 | 15231 ft | 303 kts | 95° |
| 2026-04-25 01:16 | 26.64277 | 107.06274 | 15820 ft | 307 kts | 96° |
| 2026-04-25 01:16 | 26.64006 | 107.08658 | 16412 ft | 311 kts | 96° |
| 2026-04-25 01:16 | 26.63716 | 107.11072 | 16994 ft | 316 kts | 96° |
| 2026-04-25 01:16 | 26.63545 | 107.13526 | 17576 ft | 318 kts | 85° |
| 2026-04-25 01:17 | 26.63852 | 107.15989 | 17965 ft | 327 kts | 72° |
| 2026-04-25 01:17 | 26.64608 | 107.18466 | 18097 ft | 346 kts | 67° |
| 2026-04-25 01:17 | 26.65450 | 107.21059 | 18232 ft | 365 kts | 67° |
| 2026-04-25 01:17 | 26.66333 | 107.23792 | 18369 ft | 382 kts | 68° |
| 2026-04-25 01:18 | 26.67247 | 107.26652 | 18494 ft | 399 kts | 68° |
| 2026-04-25 01:18 | 26.68190 | 107.29632 | 18608 ft | 414 kts | 68° |
| 2026-04-25 01:18 | 26.69163 | 107.32724 | 18720 ft | 428 kts | 68° |
| 2026-04-25 01:18 | 26.70153 | 107.35865 | 18835 ft | 440 kts | 68° |
| 2026-04-25 01:19 | 26.71201 | 107.39182 | 18960 ft | 451 kts | 68° |
| 2026-04-25 01:19 | 26.72237 | 107.42471 | 19260 ft | 457 kts | 68° |
| 2026-04-25 01:19 | 26.73293 | 107.45835 | 19602 ft | 460 kts | 68° |
| 2026-04-25 01:19 | 26.74370 | 107.49273 | 19974 ft | 464 kts | 68° |
| 2026-04-25 01:20 | 26.75422 | 107.52646 | 20326 ft | 467 kts | 68° |
| 2026-04-25 01:20 | 26.76509 | 107.56136 | 20689 ft | 470 kts | 67° |
| 2026-04-25 01:20 | 26.77645 | 107.59571 | 21039 ft | 471 kts | 62° |
| 2026-04-25 01:20 | 26.79145 | 107.62759 | 21364 ft | 468 kts | 53° |
| 2026-04-25 01:21 | 26.81054 | 107.65761 | 21707 ft | 468 kts | 49° |
| 2026-04-25 01:21 | 26.82980 | 107.68656 | 22075 ft | 471 kts | 49° |
| 2026-04-25 01:21 | 26.84938 | 107.71612 | 22431 ft | 473 kts | 49° |
| 2026-04-25 01:21 | 26.86895 | 107.74582 | 22759 ft | 476 kts | 49° |
| 2026-04-25 01:22 | 26.88860 | 107.77576 | 23101 ft | 478 kts | 49° |
| 2026-04-25 01:22 | 26.90834 | 107.80586 | 23436 ft | 480 kts | 49° |
| 2026-04-25 01:22 | 26.92814 | 107.83605 | 23748 ft | 482 kts | 48° |
| 2026-04-25 01:22 | 26.94804 | 107.86638 | 24023 ft | 484 kts | 48° |
| 2026-04-25 01:23 | 26.96803 | 107.89685 | 24296 ft | 486 kts | 48° |
| 2026-04-25 01:23 | 26.98807 | 107.92746 | 24555 ft | 488 kts | 48° |
| 2026-04-25 01:23 | 27.00825 | 107.95827 | 24807 ft | 490 kts | 48° |
| 2026-04-25 01:23 | 27.02840 | 107.98909 | 25153 ft | 490 kts | 48° |
| 2026-04-25 01:24 | 27.04850 | 108.01986 | 25509 ft | 489 kts | 48° |
| 2026-04-25 01:24 | 27.06860 | 108.05064 | 25839 ft | 489 kts | 47° |
| 2026-04-25 01:24 | 27.08870 | 108.08143 | 26156 ft | 489 kts | 47° |
| 2026-04-25 01:24 | 27.10881 | 108.11222 | 26495 ft | 489 kts | 47° |
| 2026-04-25 01:25 | 27.12894 | 108.14300 | 26847 ft | 489 kts | 47° |
| 2026-04-25 01:25 | 27.14905 | 108.17377 | 27202 ft | 490 kts | 47° |
| 2026-04-25 01:25 | 27.16924 | 108.20469 | 27529 ft | 490 kts | 47° |
| 2026-04-25 01:25 | 27.18940 | 108.23561 | 27862 ft | 491 kts | 47° |
| 2026-04-25 01:26 | 27.20954 | 108.26657 | 28221 ft | 491 kts | 47° |
| 2026-04-25 01:26 | 27.22969 | 108.29766 | 28569 ft | 492 kts | 47° |
| 2026-04-25 01:26 | 27.24985 | 108.32882 | 28933 ft | 492 kts | 46° |
| 2026-04-25 01:26 | 27.26993 | 108.35988 | 29301 ft | 491 kts | 46° |
| 2026-04-25 01:27 | 27.29061 | 108.39037 | 29592 ft | 490 kts | 43° |
| 2026-04-25 01:27 | 27.31226 | 108.41974 | 29952 ft | 487 kts | 41° |
| 2026-04-25 01:27 | 27.33458 | 108.44839 | 30322 ft | 486 kts | 39° |
| 2026-04-25 01:28 | 27.37967 | 108.50490 | 30926 ft | 485 kts | 40° |
| 2026-04-25 01:28 | 27.40205 | 108.53340 | 31248 ft | 486 kts | 40° |
| 2026-04-25 01:28 | 27.42425 | 108.56216 | 31564 ft | 486 kts | 40° |
| 2026-04-25 01:28 | 27.44628 | 108.59107 | 31848 ft | 487 kts | 41° |
| 2026-04-25 01:29 | 27.46827 | 108.62014 | 32117 ft | 487 kts | 41° |
| 2026-04-25 01:29 | 27.49026 | 108.64930 | 32433 ft | 487 kts | 41° |
| 2026-04-25 01:29 | 27.51222 | 108.67842 | 32754 ft | 487 kts | 41° |
| 2026-04-25 01:29 | 27.53423 | 108.70751 | 33051 ft | 488 kts | 41° |
| 2026-04-25 01:30 | 27.55630 | 108.73663 | 33211 ft | 488 kts | 41° |
| 2026-04-25 01:30 | 27.57850 | 108.76586 | 33252 ft | 494 kts | 41° |
| 2026-04-25 01:30 | 27.62328 | 108.82491 | 33244 ft | 496 kts | 41° |
| 2026-04-25 01:31 | 27.66807 | 108.88418 | 33226 ft | 496 kts | 41° |
| 2026-04-25 01:31 | 27.71284 | 108.94341 | 33236 ft | 496 kts | 41° |
| 2026-04-25 01:32 | 27.75720 | 109.00221 | 33232 ft | 495 kts | 40° |
| 2026-04-25 01:32 | 27.80185 | 109.06151 | 33237 ft | 496 kts | 41° |
| 2026-04-25 01:33 | 27.84648 | 109.12088 | 33219 ft | 496 kts | 41° |
| 2026-04-25 01:33 | 27.89124 | 109.18050 | 33223 ft | 497 kts | 41° |
| 2026-04-25 01:34 | 27.93606 | 109.24028 | 33219 ft | 499 kts | 40° |
| 2026-04-25 01:34 | 27.98090 | 109.30011 | 33222 ft | 499 kts | 40° |
| 2026-04-25 01:35 | 28.02585 | 109.36015 | 33223 ft | 499 kts | 40° |
| 2026-04-25 01:35 | 28.07073 | 109.42019 | 33231 ft | 500 kts | 40° |
| 2026-04-25 01:36 | 28.11559 | 109.48038 | 33229 ft | 500 kts | 41° |
| 2026-04-25 01:36 | 28.16011 | 109.54020 | 33227 ft | 500 kts | 40° |
| 2026-04-25 01:37 | 28.20524 | 109.60089 | 33227 ft | 500 kts | 41° |
| 2026-04-25 01:37 | 28.24969 | 109.66077 | 33223 ft | 499 kts | 40° |
| 2026-04-25 01:38 | 28.29439 | 109.72101 | 33227 ft | 499 kts | 41° |
| 2026-04-25 01:38 | 28.33935 | 109.78172 | 33239 ft | 499 kts | 41° |
| 2026-04-25 01:39 | 28.38379 | 109.84186 | 33202 ft | 501 kts | 41° |
| 2026-04-25 01:39 | 28.42896 | 109.90295 | 33192 ft | 503 kts | 41° |
| 2026-04-25 01:40 | 28.47374 | 109.96371 | 33195 ft | 505 kts | 41° |
| 2026-04-25 01:40 | 28.51880 | 110.02496 | 33200 ft | 505 kts | 41° |
| 2026-04-25 01:41 | 28.56388 | 110.08643 | 33207 ft | 506 kts | 41° |
| 2026-04-25 01:41 | 28.60904 | 110.14795 | 33217 ft | 506 kts | 41° |
| 2026-04-25 01:42 | 28.65428 | 110.20963 | 33223 ft | 506 kts | 41° |
| 2026-04-25 01:42 | 28.69936 | 110.27111 | 33215 ft | 506 kts | 41° |
| 2026-04-25 01:43 | 28.74441 | 110.33267 | 33203 ft | 506 kts | 41° |
| 2026-04-25 01:43 | 28.78943 | 110.39432 | 33214 ft | 506 kts | 42° |
| 2026-04-25 01:44 | 28.82714 | 110.44614 | 33228 ft | 505 kts | 42° |
| 2026-04-25 01:44 | 28.87921 | 110.51771 | 33211 ft | 504 kts | 43° |
| 2026-04-25 01:45 | 28.91671 | 110.56937 | 33214 ft | 504 kts | 42° |
| 2026-04-25 01:45 | 28.96866 | 110.64098 | 33227 ft | 503 kts | 43° |
| 2026-04-25 01:46 | 29.00603 | 110.69256 | 33228 ft | 503 kts | 43° |
| 2026-04-25 01:46 | 29.04274 | 110.76171 | 33223 ft | 519 kts | 62° |
| 2026-04-25 01:47 | 29.06972 | 110.83835 | 33220 ft | 519 kts | 62° |
| 2026-04-25 01:47 | 29.09664 | 110.91491 | 33219 ft | 519 kts | 62° |
| 2026-04-25 01:48 | 29.12369 | 110.99141 | 33220 ft | 518 kts | 62° |
| 2026-04-25 01:48 | 29.15068 | 111.06777 | 33220 ft | 517 kts | 62° |
| 2026-04-25 01:49 | 29.17755 | 111.14401 | 33216 ft | 517 kts | 62° |
| 2026-04-25 01:49 | 29.20430 | 111.22028 | 33212 ft | 516 kts | 62° |
| 2026-04-25 01:50 | 29.23095 | 111.29653 | 33213 ft | 515 kts | 62° |
| 2026-04-25 01:50 | 29.25752 | 111.37259 | 33208 ft | 515 kts | 62° |
| 2026-04-25 01:51 | 29.28408 | 111.44873 | 33203 ft | 514 kts | 62° |
| 2026-04-25 01:51 | 29.31057 | 111.52481 | 33202 ft | 513 kts | 62° |
| 2026-04-25 01:52 | 29.33694 | 111.60083 | 33210 ft | 513 kts | 62° |
| 2026-04-25 01:52 | 29.36782 | 111.67367 | 33206 ft | 501 kts | 50° |
| 2026-04-25 01:53 | 29.40611 | 111.74036 | 33208 ft | 501 kts | 50° |
| 2026-04-25 01:53 | 29.44413 | 111.80670 | 33208 ft | 500 kts | 50° |
| 2026-04-25 01:54 | 29.48228 | 111.87345 | 33211 ft | 500 kts | 50° |
| 2026-04-25 01:54 | 29.52034 | 111.94025 | 33209 ft | 499 kts | 50° |
| 2026-04-25 01:55 | 29.55833 | 112.00699 | 33208 ft | 499 kts | 50° |
| 2026-04-25 01:55 | 29.59625 | 112.07365 | 33208 ft | 498 kts | 50° |
| 2026-04-25 01:56 | 29.63414 | 112.14031 | 33210 ft | 498 kts | 50° |
| 2026-04-25 01:56 | 29.67190 | 112.20693 | 33208 ft | 497 kts | 50° |
| 2026-04-25 01:57 | 29.72835 | 112.30686 | 33210 ft | 496 kts | 50° |
| 2026-04-25 01:58 | 29.76586 | 112.37350 | 33207 ft | 496 kts | 50° |
| 2026-04-25 01:58 | 29.80327 | 112.44036 | 33216 ft | 496 kts | 50° |
| 2026-04-25 01:59 | 29.84056 | 112.50717 | 33199 ft | 495 kts | 50° |
| 2026-04-25 01:59 | 29.87778 | 112.57393 | 33204 ft | 495 kts | 50° |
| 2026-04-25 02:00 | 29.91501 | 112.64058 | 33204 ft | 495 kts | 50° |
| 2026-04-25 02:00 | 29.95223 | 112.70735 | 33205 ft | 495 kts | 50° |
| 2026-04-25 02:01 | 29.98930 | 112.77416 | 33206 ft | 495 kts | 50° |
| 2026-04-25 02:01 | 30.02633 | 112.84103 | 33201 ft | 494 kts | 50° |
| 2026-04-25 02:02 | 30.06333 | 112.90783 | 33195 ft | 494 kts | 50° |
| 2026-04-25 02:02 | 30.10040 | 112.97490 | 33202 ft | 495 kts | 50° |
| 2026-04-25 02:03 | 30.13745 | 113.04187 | 33208 ft | 495 kts | 50° |
| 2026-04-25 02:03 | 30.17447 | 113.10897 | 33192 ft | 495 kts | 50° |
| 2026-04-25 02:04 | 30.21137 | 113.17628 | 33189 ft | 495 kts | 50° |
| 2026-04-25 02:04 | 30.24847 | 113.24337 | 33193 ft | 495 kts | 50° |
| 2026-04-25 02:05 | 30.28611 | 113.31003 | 33200 ft | 494 kts | 49° |
| 2026-04-25 02:05 | 30.32342 | 113.37625 | 33206 ft | 494 kts | 50° |
| 2026-04-25 02:06 | 30.36093 | 113.44319 | 33205 ft | 494 kts | 50° |
| 2026-04-25 02:06 | 30.39825 | 113.51008 | 33206 ft | 494 kts | 50° |
| 2026-04-25 02:07 | 30.43549 | 113.57702 | 33207 ft | 494 kts | 51° |
| 2026-04-25 02:07 | 30.47268 | 113.64389 | 33205 ft | 494 kts | 51° |
| 2026-04-25 02:08 | 30.50991 | 113.71097 | 33207 ft | 494 kts | 51° |
| 2026-04-25 02:08 | 30.54701 | 113.77803 | 33207 ft | 494 kts | 51° |
| 2026-04-25 02:09 | 30.58407 | 113.84508 | 33204 ft | 493 kts | 51° |
| 2026-04-25 02:09 | 30.62121 | 113.91199 | 33210 ft | 493 kts | 52° |
| 2026-04-25 02:10 | 30.65831 | 113.97896 | 33216 ft | 493 kts | 52° |
| 2026-04-25 02:10 | 30.69528 | 114.04593 | 33217 ft | 493 kts | 52° |
| 2026-04-25 02:11 | 30.73218 | 114.11306 | 33217 ft | 492 kts | 53° |
| 2026-04-25 02:11 | 30.76902 | 114.18015 | 33218 ft | 492 kts | 53° |
| 2026-04-25 02:12 | 30.79813 | 114.25279 | 33202 ft | 499 kts | 65° |
| 2026-04-25 02:12 | 30.82308 | 114.32818 | 33207 ft | 499 kts | 65° |
| 2026-04-25 02:13 | 30.84759 | 114.40363 | 33215 ft | 499 kts | 66° |
| 2026-04-25 02:13 | 30.87174 | 114.47931 | 33217 ft | 498 kts | 66° |
| 2026-04-25 02:14 | 30.89597 | 114.55465 | 33216 ft | 498 kts | 66° |
| 2026-04-25 02:14 | 30.92056 | 114.63024 | 33225 ft | 498 kts | 66° |
| 2026-04-25 02:15 | 30.94500 | 114.70557 | 33224 ft | 497 kts | 67° |
| 2026-04-25 02:15 | 30.96947 | 114.78100 | 33225 ft | 497 kts | 67° |
| 2026-04-25 02:16 | 30.99376 | 114.85635 | 33225 ft | 496 kts | 67° |
| 2026-04-25 02:16 | 31.01788 | 114.93167 | 33228 ft | 495 kts | 68° |
| 2026-04-25 02:17 | 31.04196 | 115.00680 | 33231 ft | 495 kts | 68° |
| 2026-04-25 02:17 | 31.06604 | 115.08200 | 33230 ft | 494 kts | 68° |
| 2026-04-25 02:18 | 31.08995 | 115.15726 | 33234 ft | 493 kts | 68° |
| 2026-04-25 02:18 | 31.11376 | 115.23220 | 33228 ft | 492 kts | 68° |
| 2026-04-25 02:19 | 31.13744 | 115.30713 | 33231 ft | 491 kts | 68° |
| 2026-04-25 02:19 | 31.16157 | 115.38174 | 33232 ft | 491 kts | 68° |
| 2026-04-25 02:20 | 31.18585 | 115.45607 | 33231 ft | 490 kts | 68° |
| 2026-04-25 02:20 | 31.21003 | 115.53047 | 33228 ft | 489 kts | 68° |
| 2026-04-25 02:21 | 31.23402 | 115.60497 | 33226 ft | 489 kts | 69° |
| 2026-04-25 02:21 | 31.25781 | 115.67934 | 33222 ft | 488 kts | 69° |
| 2026-04-25 02:22 | 31.27753 | 115.74108 | 33221 ft | 488 kts | 69° |
| 2026-04-25 02:22 | 31.30528 | 115.82785 | 33224 ft | 487 kts | 69° |
| 2026-04-25 02:23 | 31.32498 | 115.88964 | 33216 ft | 487 kts | 69° |
| 2026-04-25 02:23 | 31.34880 | 115.96377 | 33218 ft | 487 kts | 69° |
| 2026-04-25 02:24 | 31.37292 | 116.03787 | 33211 ft | 487 kts | 69° |
| 2026-04-25 02:24 | 31.39702 | 116.11186 | 33215 ft | 487 kts | 69° |
| 2026-04-25 02:25 | 31.42095 | 116.18608 | 33214 ft | 487 kts | 69° |
| 2026-04-25 02:25 | 31.44476 | 116.26025 | 33206 ft | 487 kts | 69° |
| 2026-04-25 02:26 | 31.46858 | 116.33452 | 33202 ft | 487 kts | 69° |
| 2026-04-25 02:26 | 31.49232 | 116.40878 | 33201 ft | 487 kts | 69° |
| 2026-04-25 02:27 | 31.51607 | 116.48334 | 33193 ft | 488 kts | 69° |
| 2026-04-25 02:27 | 31.53978 | 116.55786 | 33196 ft | 488 kts | 69° |
| 2026-04-25 02:28 | 31.56347 | 116.63251 | 33199 ft | 489 kts | 69° |
| 2026-04-25 02:28 | 31.58725 | 116.70728 | 33199 ft | 489 kts | 69° |
| 2026-04-25 02:29 | 31.61148 | 116.78189 | 33202 ft | 490 kts | 69° |
| 2026-04-25 02:29 | 31.63576 | 116.85656 | 33202 ft | 490 kts | 69° |
| 2026-04-25 02:30 | 31.65986 | 116.93142 | 33199 ft | 490 kts | 69° |
| 2026-04-25 02:30 | 31.68387 | 117.00633 | 33205 ft | 490 kts | 69° |
| 2026-04-25 02:31 | 31.70745 | 117.08149 | 33204 ft | 490 kts | 70° |
| 2026-04-25 02:31 | 31.73072 | 117.15740 | 33205 ft | 491 kts | 70° |
| 2026-04-25 02:32 | 31.75380 | 117.23285 | 33214 ft | 491 kts | 70° |
| 2026-04-25 02:32 | 31.77048 | 117.31036 | 33201 ft | 490 kts | 85° |
| 2026-04-25 02:33 | 31.76896 | 117.38954 | 33200 ft | 488 kts | 96° |
| 2026-04-25 02:33 | 31.76345 | 117.46969 | 33194 ft | 489 kts | 96° |
| 2026-04-25 02:34 | 31.75805 | 117.54940 | 33196 ft | 490 kts | 96° |
| 2026-04-25 02:34 | 31.75254 | 117.62882 | 33197 ft | 490 kts | 96° |
| 2026-04-25 02:35 | 31.74679 | 117.70861 | 33198 ft | 490 kts | 96° |
| 2026-04-25 02:35 | 31.74105 | 117.78848 | 33190 ft | 491 kts | 96° |
| 2026-04-25 02:36 | 31.73534 | 117.86841 | 33195 ft | 491 kts | 96° |
| 2026-04-25 02:36 | 31.72964 | 117.94835 | 33200 ft | 492 kts | 96° |
| 2026-04-25 02:37 | 31.72376 | 118.02838 | 33198 ft | 492 kts | 96° |
| 2026-04-25 02:37 | 31.71779 | 118.10865 | 32872 ft | 491 kts | 96° |
| 2026-04-25 02:37 | 31.71487 | 118.14840 | 32350 ft | 488 kts | 96° |
| 2026-04-25 02:38 | 31.71207 | 118.18803 | 31830 ft | 486 kts | 96° |
| 2026-04-25 02:38 | 31.70936 | 118.22755 | 31329 ft | 485 kts | 95° |
| 2026-04-25 02:38 | 31.70668 | 118.26705 | 30827 ft | 484 kts | 95° |
| 2026-04-25 02:38 | 31.70401 | 118.30638 | 30341 ft | 483 kts | 95° |
| 2026-04-25 02:39 | 31.70129 | 118.34574 | 29795 ft | 483 kts | 95° |
| 2026-04-25 02:39 | 31.69852 | 118.38508 | 29240 ft | 484 kts | 95° |
| 2026-04-25 02:39 | 31.69570 | 118.42450 | 28688 ft | 486 kts | 95° |
| 2026-04-25 02:39 | 31.69283 | 118.46409 | 28150 ft | 487 kts | 95° |
| 2026-04-25 02:40 | 31.68997 | 118.50375 | 27621 ft | 489 kts | 95° |
| 2026-04-25 02:40 | 31.68710 | 118.54365 | 27101 ft | 490 kts | 95° |
| 2026-04-25 02:40 | 31.68420 | 118.58362 | 26592 ft | 492 kts | 95° |
| 2026-04-25 02:40 | 31.68131 | 118.62364 | 26091 ft | 493 kts | 95° |
| 2026-04-25 02:41 | 31.67840 | 118.66381 | 25600 ft | 494 kts | 95° |
| 2026-04-25 02:41 | 31.67546 | 118.70412 | 25114 ft | 496 kts | 95° |
| 2026-04-25 02:41 | 31.67247 | 118.74457 | 24638 ft | 498 kts | 95° |
| 2026-04-25 02:41 | 31.66947 | 118.78502 | 24173 ft | 497 kts | 95° |
| 2026-04-25 02:42 | 31.66644 | 118.82551 | 23707 ft | 494 kts | 95° |
| 2026-04-25 02:42 | 31.66345 | 118.86552 | 23163 ft | 491 kts | 95° |
| 2026-04-25 02:42 | 31.66003 | 118.90528 | 22621 ft | 487 kts | 99° |
| 2026-04-25 02:42 | 31.65196 | 118.94359 | 22090 ft | 482 kts | 110° |
| 2026-04-25 02:43 | 31.63829 | 118.97923 | 21567 ft | 477 kts | 121° |
| 2026-04-25 02:43 | 31.61965 | 119.01106 | 21054 ft | 471 kts | 131° |
| 2026-04-25 02:43 | 31.59679 | 119.03834 | 20548 ft | 466 kts | 141° |
| 2026-04-25 02:43 | 31.57119 | 119.06138 | 20053 ft | 462 kts | 144° |
| 2026-04-25 02:44 | 31.54553 | 119.08388 | 19565 ft | 459 kts | 144° |
| 2026-04-25 02:44 | 31.52004 | 119.10627 | 19081 ft | 456 kts | 144° |
| 2026-04-25 02:44 | 31.49479 | 119.12845 | 18616 ft | 453 kts | 144° |
| 2026-04-25 02:44 | 31.46971 | 119.15047 | 18106 ft | 449 kts | 144° |
| 2026-04-25 02:45 | 31.44473 | 119.17224 | 17566 ft | 445 kts | 144° |
| 2026-04-25 02:45 | 31.41997 | 119.19378 | 17050 ft | 442 kts | 144° |
| 2026-04-25 02:45 | 31.39543 | 119.21516 | 16536 ft | 438 kts | 144° |
| 2026-04-25 02:45 | 31.37113 | 119.23636 | 16033 ft | 434 kts | 144° |
| 2026-04-25 02:46 | 31.34701 | 119.25742 | 15531 ft | 431 kts | 144° |
| 2026-04-25 02:46 | 31.32309 | 119.27830 | 15046 ft | 428 kts | 144° |
| 2026-04-25 02:46 | 31.29941 | 119.29896 | 14665 ft | 418 kts | 144° |
| 2026-04-25 02:46 | 31.27656 | 119.31889 | 14536 ft | 401 kts | 144° |
| 2026-04-25 02:47 | 31.25463 | 119.33799 | 14416 ft | 386 kts | 144° |
| 2026-04-25 02:47 | 31.23348 | 119.35641 | 14302 ft | 372 kts | 144° |
| 2026-04-25 02:47 | 31.21308 | 119.37415 | 14175 ft | 359 kts | 144° |
| 2026-04-25 02:47 | 31.19312 | 119.39148 | 14066 ft | 347 kts | 144° |
| 2026-04-25 02:48 | 31.17409 | 119.40806 | 13940 ft | 336 kts | 144° |
| 2026-04-25 02:48 | 31.15566 | 119.42418 | 13812 ft | 326 kts | 144° |
| 2026-04-25 02:48 | 31.13769 | 119.43991 | 13674 ft | 318 kts | 144° |
| 2026-04-25 02:48 | 31.12020 | 119.45522 | 13460 ft | 312 kts | 144° |
| 2026-04-25 02:49 | 31.10288 | 119.47036 | 13179 ft | 310 kts | 144° |
| 2026-04-25 02:49 | 31.08568 | 119.48538 | 12873 ft | 308 kts | 144° |
| 2026-04-25 02:49 | 31.06854 | 119.50029 | 12563 ft | 307 kts | 144° |
| 2026-04-25 02:49 | 31.05171 | 119.51494 | 12248 ft | 305 kts | 144° |
| 2026-04-25 02:50 | 31.03478 | 119.52970 | 11924 ft | 304 kts | 144° |
| 2026-04-25 02:50 | 31.01786 | 119.54443 | 11617 ft | 302 kts | 144° |
| 2026-04-25 02:50 | 31.00108 | 119.55904 | 11301 ft | 301 kts | 144° |
| 2026-04-25 02:50 | 30.98438 | 119.57359 | 10985 ft | 299 kts | 144° |
| 2026-04-25 02:51 | 30.96772 | 119.58808 | 10713 ft | 298 kts | 144° |
| 2026-04-25 02:51 | 30.95119 | 119.60246 | 10383 ft | 296 kts | 144° |
| 2026-04-25 02:51 | 30.93471 | 119.61680 | 10073 ft | 294 kts | 144° |
| 2026-04-25 02:51 | 30.91819 | 119.63119 | 9788 ft | 292 kts | 144° |
| 2026-04-25 02:52 | 30.90187 | 119.64536 | 9775 ft | 293 kts | 144° |
| 2026-04-25 02:52 | 30.88553 | 119.65954 | 9770 ft | 293 kts | 144° |
| 2026-04-25 02:52 | 30.86916 | 119.67375 | 9777 ft | 294 kts | 144° |
| 2026-04-25 02:52 | 30.85282 | 119.68797 | 9775 ft | 293 kts | 144° |
| 2026-04-25 02:53 | 30.83645 | 119.70219 | 9775 ft | 294 kts | 144° |
| 2026-04-25 02:53 | 30.82004 | 119.71640 | 9774 ft | 294 kts | 144° |
| 2026-04-25 02:53 | 30.80366 | 119.73055 | 9768 ft | 293 kts | 144° |
| 2026-04-25 02:53 | 30.78734 | 119.74464 | 9453 ft | 291 kts | 144° |
| 2026-04-25 02:54 | 30.77112 | 119.75865 | 9085 ft | 290 kts | 144° |
| 2026-04-25 02:54 | 30.75499 | 119.77259 | 8767 ft | 288 kts | 144° |
| 2026-04-25 02:54 | 30.73896 | 119.78645 | 8415 ft | 286 kts | 144° |
| 2026-04-25 02:54 | 30.72306 | 119.80022 | 8070 ft | 284 kts | 144° |
| 2026-04-25 02:55 | 30.70636 | 119.81211 | 7872 ft | 281 kts | 159° |
| 2026-04-25 02:55 | 30.68808 | 119.82031 | 7869 ft | 282 kts | 160° |
| 2026-04-25 02:55 | 30.66975 | 119.82853 | 7874 ft | 282 kts | 160° |
| 2026-04-25 02:55 | 30.65135 | 119.83679 | 7868 ft | 283 kts | 160° |
| 2026-04-25 02:56 | 30.63303 | 119.84501 | 7871 ft | 283 kts | 160° |
| 2026-04-25 02:56 | 30.62084 | 119.85047 | 7875 ft | 283 kts | 159° |
| 2026-04-25 02:56 | 30.59632 | 119.86144 | 7876 ft | 283 kts | 160° |
| 2026-04-25 02:56 | 30.58418 | 119.86687 | 7876 ft | 283 kts | 160° |
| 2026-04-25 02:57 | 30.56583 | 119.87508 | 7875 ft | 283 kts | 160° |
| 2026-04-25 02:57 | 30.54748 | 119.88325 | 7873 ft | 282 kts | 160° |
| 2026-04-25 02:57 | 30.52913 | 119.89141 | 7874 ft | 283 kts | 160° |
| 2026-04-25 02:57 | 30.51078 | 119.89957 | 7877 ft | 283 kts | 160° |
| 2026-04-25 02:58 | 30.49242 | 119.90776 | 7874 ft | 283 kts | 160° |
| 2026-04-25 02:58 | 30.47405 | 119.91595 | 7874 ft | 283 kts | 160° |
| 2026-04-25 02:58 | 30.45568 | 119.92411 | 7873 ft | 283 kts | 160° |
| 2026-04-25 02:58 | 30.43730 | 119.93227 | 7881 ft | 283 kts | 160° |
| 2026-04-25 02:59 | 30.41891 | 119.94044 | 7874 ft | 283 kts | 160° |
| 2026-04-25 02:59 | 30.40055 | 119.94860 | 7766 ft | 281 kts | 160° |
| 2026-04-25 02:59 | 30.38236 | 119.95668 | 7392 ft | 280 kts | 160° |
| 2026-04-25 02:59 | 30.36421 | 119.96473 | 7053 ft | 279 kts | 160° |
| 2026-04-25 03:00 | 30.34616 | 119.97275 | 6725 ft | 277 kts | 160° |
| 2026-04-25 03:00 | 30.32821 | 119.98072 | 6363 ft | 275 kts | 160° |
| 2026-04-25 03:00 | 30.31033 | 119.98862 | 5966 ft | 274 kts | 160° |
| 2026-04-25 03:00 | 30.29257 | 119.99646 | 5864 ft | 273 kts | 160° |
| 2026-04-25 03:01 | 30.27475 | 120.00435 | 5872 ft | 275 kts | 160° |
| 2026-04-25 03:01 | 30.25687 | 120.01225 | 5875 ft | 275 kts | 160° |
| 2026-04-25 03:01 | 30.23899 | 120.02015 | 5873 ft | 275 kts | 160° |
| 2026-04-25 03:01 | 30.22112 | 120.02805 | 5881 ft | 275 kts | 160° |
| 2026-04-25 03:02 | 30.20321 | 120.03594 | 5872 ft | 274 kts | 160° |
| 2026-04-25 03:02 | 30.18587 | 120.04360 | 5785 ft | 262 kts | 160° |
| 2026-04-25 03:02 | 30.16916 | 120.05103 | 5648 ft | 252 kts | 160° |
| 2026-04-25 03:02 | 30.15353 | 120.05915 | 5522 ft | 242 kts | 153° |
| 2026-04-25 03:03 | 30.13882 | 120.06796 | 5393 ft | 235 kts | 153° |
| 2026-04-25 03:03 | 30.12480 | 120.07631 | 5268 ft | 228 kts | 154° |
| 2026-04-25 03:03 | 30.11087 | 120.08458 | 5148 ft | 222 kts | 154° |
| 2026-04-25 03:03 | 30.09809 | 120.09390 | 5042 ft | 212 kts | 135° |
| 2026-04-25 03:04 | 30.09115 | 120.10814 | 4905 ft | 201 kts | 102° |
| 2026-04-25 03:04 | 30.09162 | 120.12381 | 4623 ft | 195 kts | 68° |
| 2026-04-25 03:04 | 30.09746 | 120.13787 | 4310 ft | 194 kts | 62° |
| 2026-04-25 03:05 | 30.10975 | 120.16548 | 3779 ft | 192 kts | 62° |
| 2026-04-25 03:05 | 30.11585 | 120.17914 | 3504 ft | 190 kts | 62° |
| 2026-04-25 03:05 | 30.12189 | 120.19266 | 3229 ft | 189 kts | 63° |
| 2026-04-25 03:05 | 30.12788 | 120.20608 | 2956 ft | 187 kts | 63° |
| 2026-04-25 03:06 | 30.13381 | 120.21936 | 2884 ft | 186 kts | 63° |
| 2026-04-25 03:06 | 30.13974 | 120.23265 | 2898 ft | 186 kts | 63° |
| 2026-04-25 03:06 | 30.14570 | 120.24600 | 2893 ft | 187 kts | 63° |
| 2026-04-25 03:06 | 30.15164 | 120.25933 | 2900 ft | 187 kts | 63° |
| 2026-04-25 03:07 | 30.15761 | 120.27273 | 2764 ft | 187 kts | 63° |
| 2026-04-25 03:07 | 30.16354 | 120.28604 | 2544 ft | 186 kts | 63° |
| 2026-04-25 03:07 | 30.16945 | 120.29929 | 2309 ft | 185 kts | 63° |
| 2026-04-25 03:07 | 30.17528 | 120.31240 | 2073 ft | 181 kts | 63° |
| 2026-04-25 03:08 | 30.18086 | 120.32492 | 1851 ft | 169 kts | 63° |
| 2026-04-25 03:08 | 30.18597 | 120.33640 | 1619 ft | 154 kts | 63° |
| 2026-04-25 03:08 | 30.19068 | 120.34699 | 1410 ft | 143 kts | 63° |
| 2026-04-25 03:08 | 30.19518 | 120.35710 | 1236 ft | 140 kts | 63° |
| 2026-04-25 03:09 | 30.19958 | 120.36700 | 1063 ft | 138 kts | 63° |
| 2026-04-25 03:09 | 30.20395 | 120.37683 | 855 ft | 137 kts | 63° |
| 2026-04-25 03:09 | 30.20829 | 120.38661 | 651 ft | 137 kts | 63° |
| 2026-04-25 03:09 | 30.21260 | 120.39637 | 467 ft | 137 kts | 62° |
| 2026-04-25 03:10 | 30.21699 | 120.40608 | 301 ft | 137 kts | 63° |
| 2026-04-25 03:10 | 30.22130 | 120.41581 | 112 ft | 136 kts | 64° |
| 2026-04-25 03:10 | 30.22545 | 120.42522 | 36 ft | 121 kts | 63° |
| 2026-04-25 03:10 | 30.22851 | 120.43215 | 34 ft | 71 kts | 63° |
| 2026-04-25 03:11 | 30.22986 | 120.43516 | 35 ft | 25 kts | 58° |
| 2026-04-25 03:11 | 30.23100 | 120.43671 | 34 ft | 21 kts | 42° |
| 2026-04-25 03:11 | 30.23212 | 120.43762 | 33 ft | 19 kts | 34° |
| 2026-04-25 03:11 | 30.23329 | 120.43782 | 31 ft | 19 kts | 329° |
| 2026-04-25 03:12 | 30.23440 | 120.43721 | 32 ft | 13 kts | 329° |
| 2026-04-25 03:12 | 30.23478 | 120.43637 | 30 ft | 11 kts | 289° |
| 2026-04-25 03:12 | 30.23491 | 120.43594 | 32 ft | 2 kts | 289° |
| 2026-04-25 03:12 | 30.23491 | 120.43592 | 32 ft | 0 kts | 289° |